X  Close Metar Aviation Weather Data     LIML Milano Linate Airport
Temperature
24°C Temperature
19°C Dewpoint
74% Humidity



Wind
11 KM/H
7 MPH
3 M/S
6 KTS



250°
WSW
Current Conditions

Clear Clear
Pressure 1014.92 (hPa) - 29.97 (inHg)
Visibility 6.2 (mile) - 10 (km)
Airport
Airport-code LIML

Location: Milano Linate Airport
Distance: 100 (km)

Metar:
LIML 102050Z 25006KT 210V280 CAVOK 24/19 Q1015 NOSIG

Time: 10-08-2020 22:50 CEST